Time;durP1;ratioP1;P1;durP2;ratioP2;P2;SDS_P1;SDS_P2;PMS_P1;PMS_P2;Temp;Humidity;BMP_temperature;BMP_pressure;BME280_temperature;BME280_humidity;BME280_pressure;Samples;Min_cycle;Max_cycle;Signal;HPM_P1;HPM_P2
2024/01/13 00:05:08;;;;;;;8.75;4.50;;;;;;;14.15;100.00;100719.72;10532050;28;20056;-77
2024/01/13 00:10:31;;;;;;;7.57;4.60;;;;;;;14.06;100.00;100727.66;10532175;28;20126;-78
2024/01/13 00:15:55;;;;;;;12.05;5.93;;;;;;;14.06;100.00;100733.88;10528436;28;20106;-78
2024/01/13 00:21:17;;;;;;;9.25;5.50;;;;;;;13.89;100.00;100740.94;10516196;28;20131;-77
2024/01/13 00:26:40;;;;;;;15.02;5.93;;;;;;;14.00;100.00;100733.88;10531448;28;20055;-78
2024/01/13 00:32:05;;;;;;;11.40;5.90;;;;;;;13.96;100.00;100732.09;10533945;28;20052;-77
2024/01/13 00:37:28;;;;;;;9.18;5.50;;;;;;;14.01;100.00;100729.44;10504690;28;20044;-77
2024/01/13 00:42:50;;;;;;;9.10;5.28;;;;;;;13.95;100.00;100735.63;10489410;28;20076;-77
2024/01/13 00:48:14;;;;;;;9.10;5.53;;;;;;;13.88;100.00;100723.25;10490386;28;20049;-76
2024/01/13 00:53:37;;;;;;;6.97;4.63;;;;;;;13.93;100.00;100727.66;10496564;28;20566;-77
2024/01/13 00:58:59;;;;;;;9.73;4.60;;;;;;;13.85;100.00;100726.75;10489786;28;20504;-77
2024/01/13 01:04:23;;;;;;;5.47;3.40;;;;;;;13.89;100.00;100725.00;10510189;28;20066;-77
2024/01/13 01:09:46;;;;;;;5.20;3.33;;;;;;;14.05;100.00;100725.91;10514269;28;20050;-75
2024/01/13 01:15:09;;;;;;;7.28;3.60;;;;;;;13.94;100.00;100728.56;10538980;28;20047;-76
2024/01/13 01:20:33;;;;;;;11.43;4.38;;;;;;;13.92;100.00;100722.34;10538557;28;20077;-76
2024/01/13 01:25:55;;;;;;;7.55;3.38;;;;;;;13.96;100.00;100721.47;10536441;28;20407;-77
2024/01/13 01:31:17;;;;;;;7.70;3.78;;;;;;;13.92;100.00;100725.88;10537678;28;20365;-77
2024/01/13 01:36:41;;;;;;;8.40;4.47;;;;;;;14.01;100.00;100729.44;10523582;28;20048;-77
2024/01/13 01:42:04;;;;;;;8.35;4.80;;;;;;;13.94;100.00;100716.16;10550670;28;20501;-76
2024/01/13 01:47:28;;;;;;;9.15;5.18;;;;;;;14.03;100.00;100720.59;10501393;28;20049;-77
2024/01/13 01:52:52;;;;;;;7.93;5.13;;;;;;;14.07;100.00;100708.22;10495200;28;20075;-77
2024/01/13 01:58:15;;;;;;;7.18;4.10;;;;;;;14.14;100.00;100712.63;10498573;28;20052;-77
2024/01/13 02:03:39;;;;;;;6.05;3.35;;;;;;;13.98;100.00;100714.38;10522803;28;20060;-77
2024/01/13 02:09:04;;;;;;;10.00;2.88;;;;;;;13.95;100.00;100711.75;10522919;28;20051;-76
2024/01/13 02:14:26;;;;;;;10.23;4.10;;;;;;;13.89;100.00;100719.72;10522782;28;20302;-77
2024/01/13 02:19:48;;;;;;;14.52;5.65;;;;;;;13.89;100.00;100711.75;10535705;28;20138;-77
2024/01/13 02:25:12;;;;;;;7.05;3.00;;;;;;;13.96;100.00;100711.75;10535766;28;20060;-77
2024/01/13 02:30:35;;;;;;;8.63;3.28;;;;;;;13.87;100.00;100724.13;10514317;28;20611;-77
2024/01/13 02:35:57;;;;;;;6.70;2.92;;;;;;;13.84;100.00;100724.13;10493915;28;20048;-76
2024/01/13 02:41:21;;;;;;;9.48;3.42;;;;;;;13.81;100.00;100726.75;10492640;28;20103;-76
2024/01/13 02:46:43;;;;;;;10.10;3.58;;;;;;;13.87;100.00;100729.41;10514401;28;20450;-76
2024/01/13 02:52:07;;;;;;;6.53;3.70;;;;;;;13.86;100.00;100743.56;10506799;28;20036;-77
2024/01/13 02:57:30;;;;;;;5.32;2.65;;;;;;;13.68;100.00;100743.53;10542440;28;20048;-77
2024/01/13 03:02:53;;;;;;;6.53;3.72;;;;;;;13.74;100.00;100747.09;10534855;28;20051;-76
2024/01/13 03:08:16;;;;;;;7.57;3.40;;;;;;;13.66;100.00;100747.94;10519418;28;20135;-76
2024/01/13 03:13:40;;;;;;;4.80;3.10;;;;;;;13.61;100.00;100741.75;10573196;28;20039;-77
2024/01/13 03:19:02;;;;;;;9.43;3.40;;;;;;;13.51;100.00;100754.09;10554506;28;20036;-77
2024/01/13 03:24:25;;;;;;;8.40;3.95;;;;;;;13.59;100.00;100746.19;10501959;28;20056;-77
2024/01/13 03:29:48;;;;;;;7.07;4.00;;;;;;;13.63;100.00;100761.22;10527485;28;20125;-76
2024/01/13 03:35:11;;;;;;;7.85;3.72;;;;;;;13.53;100.00;100771.78;10533065;28;20582;-76
2024/01/13 03:40:33;;;;;;;8.23;3.53;;;;;;;13.49;100.00;100777.97;10507757;28;20049;-76
2024/01/13 03:45:57;;;;;;;10.85;4.50;;;;;;;13.45;100.00;100783.25;10520447;28;20504;-76
2024/01/13 03:51:20;;;;;;;8.15;3.72;;;;;;;13.51;100.00;100788.59;10532780;28;20048;-76
2024/01/13 03:56:42;;;;;;;7.57;3.33;;;;;;;13.42;100.00;100780.56;10505452;28;20117;-77
2024/01/13 04:02:06;;;;;;;5.18;3.28;;;;;;;13.24;100.00;100783.16;10490169;28;20048;-77
2024/01/13 04:07:28;;;;;;;7.22;3.85;;;;;;;13.28;100.00;100798.19;10490622;28;20066;-77
2024/01/13 04:12:51;;;;;;;8.85;4.25;;;;;;;13.31;100.00;100796.44;10491093;28;20056;-77
2024/01/13 04:18:15;;;;;;;7.45;4.20;;;;;;;13.24;100.00;100797.28;10490258;28;20094;-77
2024/01/13 04:23:37;;;;;;;11.73;4.95;;;;;;;13.33;100.00;100799.97;10489229;28;20082;-77
2024/01/13 04:29:00;;;;;;;9.63;4.10;;;;;;;13.27;100.00;100805.25;10490195;28;20126;-77
2024/01/13 04:34:24;;;;;;;9.13;3.47;;;;;;;13.27;100.00;100799.94;10475298;28;20044;-77
2024/01/13 04:39:46;;;;;;;12.32;4.18;;;;;;;13.34;100.00;100809.69;10497542;28;20049;-75
2024/01/13 04:45:09;;;;;;;9.95;4.63;;;;;;;13.38;100.00;100810.63;10506984;28;20055;-76
2024/01/13 04:50:33;;;;;;;11.90;4.22;;;;;;;13.25;100.00;100807.03;10489289;28;20510;-76
2024/01/13 04:55:56;;;;;;;12.73;4.40;;;;;;;13.27;100.00;100820.25;10539917;28;20613;-77
2024/01/13 05:01:18;;;;;;;9.93;4.22;;;;;;;13.28;100.00;100814.97;10539363;28;20873;-77
2024/01/13 05:06:43;;;;;;;10.35;3.97;;;;;;;13.18;100.00;100815.81;10499044;28;20052;-77
2024/01/13 05:12:06;;;;;;;9.40;4.53;;;;;;;13.08;100.00;100817.47;10497421;28;20044;-76
2024/01/13 05:17:29;;;;;;;11.55;4.95;;;;;;;13.03;100.00;100832.47;10497225;28;20052;-77
2024/01/13 05:22:53;;;;;;;7.32;4.00;;;;;;;12.91;100.00;100828.84;10522865;28;20056;-76
2024/01/13 05:28:16;;;;;;;8.65;3.95;;;;;;;12.72;100.00;100830.47;10522311;28;20065;-76
2024/01/13 05:33:38;;;;;;;9.95;4.10;;;;;;;12.68;100.00;100845.44;10496160;28;20047;-77
2024/01/13 05:39:02;;;;;;;11.07;4.15;;;;;;;12.83;100.00;100849.09;10482846;28;20523;-77
2024/01/13 05:44:25;;;;;;;8.75;4.60;;;;;;;12.87;100.00;100858.84;10472312;28;20040;-77
2024/01/13 05:49:47;;;;;;;13.32;3.75;;;;;;;12.84;100.00;100862.38;10537410;28;20404;-76
2024/01/13 05:55:11;;;;;;;16.05;9.30;;;;;;;12.88;100.00;100879.16;10524856;28;20090;-77
2024/01/13 06:00:34;;;;;;;13.43;6.60;;;;;;;12.96;100.00;100883.66;10525815;28;20369;-77
2024/01/13 06:05:56;;;;;;;14.25;6.35;;;;;;;13.12;100.00;100885.59;10536470;28;20056;-77
2024/01/13 06:11:20;;;;;;;11.10;6.60;;;;;;;13.23;100.00;100892.72;10531852;28;20043;-77
2024/01/13 06:16:42;;;;;;;12.57;7.13;;;;;;;13.24;100.00;100900.69;10494282;28;20095;-77
2024/01/13 06:22:05;;;;;;;14.38;7.18;;;;;;;13.50;100.00;100917.66;10540561;28;20044;-77
2024/01/13 06:27:29;;;;;;;14.40;8.00;;;;;;;13.46;100.00;100922.91;10551427;28;20124;-77
2024/01/13 06:32:52;;;;;;;8.63;4.20;;;;;;;13.33;100.00;100940.50;10493556;28;20055;-77
2024/01/13 06:38:14;;;;;;;22.15;12.07;;;;;;;13.34;100.00;100947.56;10503006;28;20044;-77
2024/01/13 06:43:38;;;;;;;10.95;6.25;;;;;;;13.46;100.00;100960.91;10520661;28;20052;-77
2024/01/13 06:49:01;;;;;;;12.98;6.50;;;;;;;13.54;100.00;100960.97;10507056;28;20377;-77
2024/01/13 06:54:23;;;;;;;12.32;6.00;;;;;;;13.57;100.00;100980.47;10520933;28;20056;-77
2024/01/13 06:59:47;;;;;;;8.95;5.97;;;;;;;13.80;100.00;100991.22;10534267;28;20377;-77
2024/01/13 07:05:10;;;;;;;11.98;7.38;;;;;;;13.88;100.00;100991.25;10505178;28;20052;-77
2024/01/13 07:10:32;;;;;;;8.07;4.20;;;;;;;13.98;100.00;101013.44;10492716;28;20056;-77
2024/01/13 07:15:56;;;;;;;49.30;19.70;;;;;;;13.98;100.00;101009.00;10532064;28;20040;-77
2024/01/13 07:21:19;;;;;;;51.42;16.20;;;;;;;14.00;100.00;101020.53;10530339;28;20094;-77
2024/01/13 07:26:42;;;;;;;14.23;7.47;;;;;;;14.15;100.00;101025.03;10532777;28;20052;-77
2024/01/13 07:32:06;;;;;;;12.23;8.80;;;;;;;14.35;100.00;101031.34;10546828;28;20055;-77
2024/01/13 07:37:28;;;;;;;15.93;10.15;;;;;;;14.39;100.00;101045.53;10532544;28;20093;-77
2024/01/13 07:42:51;;;;;;;12.95;7.88;;;;;;;14.36;100.00;101049.94;10532492;28;20047;-77
2024/01/13 07:48:14;;;;;;;9.88;7.50;;;;;;;14.43;100.00;101050.00;10532801;28;20050;-77
2024/01/13 07:53:39;;;;;;;8.68;7.07;;;;;;;14.36;100.00;101057.91;10518182;28;20054;-78
2024/01/13 07:59:03;;;;;;;9.73;5.03;;;;;;;14.54;100.00;101065.09;10529572;28;20044;-77
2024/01/13 08:04:27;;;;;;;13.05;6.05;;;;;;;14.70;98.47;101066.06;10490510;28;20573;-78
2024/01/13 08:09:50;;;;;;;11.70;7.28;;;;;;;14.68;100.00;101052.75;10476043;28;20041;-77
2024/01/13 08:15:12;;;;;;;11.93;8.25;;;;;;;14.56;99.46;101073.09;10489957;28;20048;-77
2024/01/13 08:20:36;;;;;;;13.38;6.55;;;;;;;14.41;100.00;101071.25;10516854;28;20048;-78
2024/01/13 08:25:58;;;;;;;9.43;6.40;;;;;;;14.67;96.66;101066.03;10506724;28;20052;-77
2024/01/13 08:31:21;;;;;;;13.25;8.18;;;;;;;14.74;93.40;101076.69;10527755;28;20047;-77
2024/01/13 08:36:45;;;;;;;13.85;8.18;;;;;;;14.86;93.04;101067.88;10530675;28;20067;-78
2024/01/13 08:42:07;;;;;;;27.80;16.90;;;;;;;15.15;90.56;101062.63;10526143;28;20044;-77
2024/01/13 08:47:31;;;;;;;29.27;19.92;;;;;;;15.02;87.57;101048.44;10524006;28;20058;-76
2024/01/13 08:52:55;;;;;;;19.08;13.32;;;;;;;14.87;86.95;101045.72;10503463;28;20041;-77
2024/01/13 08:58:17;;;;;;;21.77;14.00;;;;;;;14.59;88.26;101054.47;10509193;28;20539;-77
2024/01/13 09:03:40;;;;;;;39.50;21.95;;;;;;;14.40;90.00;101047.31;10529041;28;20044;-77
2024/01/13 09:09:05;;;;;;;33.92;18.42;;;;;;;14.13;92.26;101040.94;10529149;28;20051;-77
2024/01/13 09:14:30;;;;;;;14.85;8.38;;;;;;;14.21;90.65;101038.34;10517366;28;20063;-77
2024/01/13 09:19:53;;;;;;;52.97;30.42;;;;;;;14.32;90.57;101032.19;10518761;28;20484;-76
2024/01/13 09:25:17;;;;;;;13.27;7.55;;;;;;;14.28;93.53;101033.06;10496347;28;20725;-77
2024/01/13 09:30:40;;;;;;;19.20;11.93;;;;;;;14.20;97.51;101047.19;10532840;28;20377;-76
2024/01/13 09:36:02;;;;;;;10.10;5.85;;;;;;;14.09;98.26;101032.97;10525535;28;20062;-76
2024/01/13 09:41:26;;;;;;;10.68;4.80;;;;;;;14.18;100.00;101025.03;10522751;28;20040;-77
2024/01/13 09:46:49;;;;;;;10.35;4.75;;;;;;;14.23;100.00;101018.00;10542342;28;20143;-77
2024/01/13 09:52:12;;;;;;;13.57;6.55;;;;;;;14.42;100.00;100998.66;10539541;28;20048;-76
2024/01/13 09:57:36;;;;;;;14.25;7.30;;;;;;;14.82;99.33;100981.03;10512354;28;20143;-77
2024/01/13 10:02:59;;;;;;;13.18;6.57;;;;;;;14.74;98.62;100998.75;10532217;28;20062;-77
2024/01/13 10:08:28;;;;;;;11.30;4.80;;;;;;;14.93;100.00;100989.91;10525727;28;20048;-76
2024/01/13 10:14:01;;;;;;;13.98;4.57;;;;;;;15.07;100.00;100980.19;10522024;28;20052;-77
2024/01/13 10:19:25;;;;;;;7.55;4.20;;;;;;;15.36;94.65;101003.25;10527567;28;20064;-76
2024/01/13 10:24:50;;;;;;;9.65;4.40;;;;;;;15.31;93.21;100991.69;10535512;28;20075;-77
2024/01/13 10:30:15;;;;;;;7.25;3.65;;;;;;;15.30;95.57;101006.78;10519535;28;20116;-78
2024/01/13 10:35:37;;;;;;;21.50;12.00;;;;;;;15.42;96.50;101000.59;10544995;28;20043;-76
2024/01/13 10:41:00;;;;;;;8.65;2.85;;;;;;;15.74;92.13;101001.47;10511630;28;20054;-77
2024/01/13 10:46:26;;;;;;;6.07;2.90;;;;;;;16.24;90.23;101001.31;10529576;28;20058;-77
2024/01/13 10:51:56;;;;;;;10.90;4.40;;;;;;;17.76;72.31;101007.47;10493345;28;20048;-77
2024/01/13 10:57:19;;;;;;;8.07;4.18;;;;;;;16.18;83.90;101008.44;10496083;28;20051;-77
2024/01/13 11:02:43;;;;;;;7.68;3.83;;;;;;;16.79;84.82;101003.75;10510033;28;20057;-76
2024/01/13 11:08:07;;;;;;;10.40;4.57;;;;;;;17.67;66.81;101000.41;10492207;28;20489;-77
2024/01/13 11:13:32;;;;;;;8.02;3.40;;;;;;;17.49;73.86;100993.44;10478397;28;20122;-77
2024/01/13 11:18:58;;;;;;;10.27;3.13;;;;;;;18.42;60.84;100980.88;10506969;28;20048;-77
2024/01/13 11:24:23;;;;;;;8.15;3.40;;;;;;;16.90;69.00;100985.03;10519547;28;20063;-78
2024/01/13 11:29:48;;;;;;;8.90;4.28;;;;;;;16.60;70.13;100968.34;10515846;28;20044;-77
2024/01/13 11:35:12;;;;;;;10.38;3.10;;;;;;;16.59;66.12;100968.31;10488661;28;20044;-77
2024/01/13 11:40:34;;;;;;;10.90;3.15;;;;;;;16.44;63.61;100976.38;10528987;28;20135;-77
2024/01/13 11:45:57;;;;;;;6.30;2.40;;;;;;;16.05;65.16;100977.41;10531424;28;20048;-77
2024/01/13 11:51:23;;;;;;;8.90;3.10;;;;;;;16.28;63.77;100981.75;10527070;28;20040;-77
2024/01/13 11:56:46;;;;;;;8.70;3.88;;;;;;;16.51;62.65;100978.13;10514124;28;20561;-78
2024/01/13 12:02:09;;;;;;;5.88;3.47;;;;;;;17.06;60.39;100981.38;10523765;28;20055;-77
2024/01/13 12:07:34;;;;;;;8.05;4.13;;;;;;;16.68;56.80;100973.59;10531542;28;20071;-75
2024/01/13 12:13:02;;;;;;;6.85;3.10;;;;;;;16.47;56.79;100981.69;10512764;28;20387;-77
2024/01/13 12:18:26;;;;;;;7.50;4.32;;;;;;;16.36;55.48;100984.41;10522901;28;20527;-77
2024/01/13 12:23:51;;;;;;;4.57;2.67;;;;;;;16.09;56.22;100997.81;10511004;28;20052;-77
2024/01/13 12:29:14;;;;;;;7.57;3.72;;;;;;;15.68;57.45;100993.50;10533388;28;20435;-76
2024/01/13 12:34:39;;;;;;;12.32;3.88;;;;;;;15.11;59.52;101011.19;10513566;28;20056;-77
2024/01/13 12:40:05;;;;;;;7.47;3.50;;;;;;;14.80;65.13;101020.00;10524040;28;20064;-75
2024/01/13 12:45:28;;;;;;;6.53;3.67;;;;;;;14.63;67.13;101014.66;10504063;28;20149;-77
2024/01/13 12:50:50;;;;;;;7.22;3.42;;;;;;;14.71;65.62;101012.88;10515278;28;20048;-74
2024/01/13 12:56:16;;;;;;;5.65;3.05;;;;;;;14.50;68.39;101033.22;10514373;28;20059;-80
2024/01/13 13:01:39;;;;;;;6.45;2.67;;;;;;;14.23;70.79;101029.50;10549870;28;20078;-75
2024/01/13 13:07:01;;;;;;;8.45;3.88;;;;;;;13.76;78.64;101036.31;10522566;28;20051;-77
2024/01/13 13:12:25;;;;;;;13.10;6.93;;;;;;;13.95;86.40;101040.84;10532483;28;20063;-74
2024/01/13 13:17:49;;;;;;;14.32;6.88;;;;;;;14.06;82.86;101051.53;10515609;28;20408;-75
2024/01/13 13:23:12;;;;;;;8.95;5.97;;;;;;;13.77;85.42;101052.25;10538945;28;20075;-75
2024/01/13 13:28:36;;;;;;;8.07;3.50;;;;;;;13.84;84.00;101051.41;10535410;28;20113;-74
2024/01/13 13:33:59;;;;;;;8.50;3.30;;;;;;;14.08;79.37;101058.63;10525440;28;20139;-75
2024/01/13 13:39:22;;;;;;;7.70;3.53;;;;;;;14.20;75.85;101041.88;10479555;28;20045;-75
2024/01/13 13:44:46;;;;;;;8.80;3.40;;;;;;;14.10;72.95;101072.81;10511368;28;20103;-76
2024/01/13 13:50:09;;;;;;;6.07;3.20;;;;;;;13.59;75.79;101061.81;10537524;28;20036;-76
2024/01/13 13:55:31;;;;;;;8.80;3.88;;;;;;;13.52;80.18;101059.09;10528825;28;20036;-77
2024/01/13 14:00:55;;;;;;;9.80;5.80;;;;;;;13.64;79.70;101053.03;10541192;27;20040;-78
2024/01/13 14:06:18;;;;;;;6.60;3.92;;;;;;;13.61;79.48;101060.06;10510334;28;20514;-76
2024/01/13 14:11:40;;;;;;;5.82;3.28;;;;;;;13.48;82.08;101056.41;10520437;28;20090;-77
2024/01/13 14:17:04;;;;;;;13.70;6.75;;;;;;;13.32;81.92;101060.72;10519684;28;20055;-77
2024/01/13 14:22:28;;;;;;;8.40;4.15;;;;;;;13.32;83.73;101050.09;10510974;28;20059;-76
2024/01/13 14:27:50;;;;;;;7.47;5.00;;;;;;;13.26;83.67;101047.38;10504722;28;20049;-76
2024/01/13 14:33:14;;;;;;;66.78;30.95;;;;;;;13.12;83.38;101047.28;10526174;28;20733;-75
2024/01/13 14:38:37;;;;;;;9.68;4.18;;;;;;;13.08;80.37;101048.06;10530150;28;20044;-76
2024/01/13 14:43:59;;;;;;;10.85;5.20;;;;;;;13.11;80.40;101055.16;10500825;28;20060;-76
2024/01/13 14:49:24;;;;;;;10.75;5.93;;;;;;;12.97;80.08;101067.38;10496237;28;20047;-76
2024/01/13 14:54:46;;;;;;;6.05;3.58;;;;;;;12.96;81.27;101063.84;10486955;28;20040;-75
2024/01/13 15:00:10;;;;;;;14.13;6.35;;;;;;;12.82;81.58;101064.56;10498321;28;20147;-75
2024/01/13 15:05:34;;;;;;;13.38;5.45;;;;;;;12.70;78.95;101052.06;10508667;27;20115;-77
2024/01/13 15:10:57;;;;;;;10.23;3.97;;;;;;;12.66;79.15;101074.09;10530588;28;20054;-77
2024/01/13 15:16:19;;;;;;;9.48;6.13;;;;;;;12.62;77.71;101078.47;10480667;28;20045;-77
2024/01/13 15:21:43;;;;;;;13.68;5.03;;;;;;;12.53;77.71;101080.13;10509715;28;20051;-76
2024/01/13 15:27:06;;;;;;;8.18;4.60;;;;;;;12.42;78.56;101085.25;10514089;28;20052;-75
2024/01/13 15:32:30;;;;;;;10.00;5.40;;;;;;;12.42;77.61;101093.19;10502828;28;20052;-78
2024/01/13 15:37:54;;;;;;;10.90;5.43;;;;;;;12.36;78.70;101111.66;10476560;28;20052;-77
2024/01/13 15:43:16;;;;;;;9.07;3.97;;;;;;;12.27;75.36;101101.81;10524330;28;20055;-77
2024/01/13 15:48:39;;;;;;;8.55;5.18;;;;;;;12.22;73.62;101129.09;10517274;28;20044;-76
2024/01/13 15:54:06;;;;;;;11.60;5.47;;;;;;;12.29;76.79;101139.78;10504176;28;20045;-77
2024/01/13 15:59:28;;;;;;;11.38;6.35;;;;;;;12.28;79.88;101121.22;10526750;28;20412;-75
2024/01/13 16:04:51;;;;;;;11.10;5.70;;;;;;;12.24;81.78;101128.25;10518120;28;20567;-75
2024/01/13 16:10:16;;;;;;;8.73;5.72;;;;;;;12.47;84.31;101125.06;10480265;28;20045;-77
2024/01/13 16:15:39;;;;;;;11.25;6.07;;;;;;;12.43;86.64;101145.28;10476904;28;20048;-76
2024/01/13 16:21:01;;;;;;;17.42;8.35;;;;;;;12.38;87.63;101125.81;10520005;28;20051;-76
2024/01/13 16:26:28;;;;;;;12.82;5.15;;;;;;;12.44;87.49;101136.47;10500965;28;20052;-76
2024/01/13 16:31:51;;;;;;;7.97;4.03;;;;;;;12.51;85.70;101134.81;10504778;28;20089;-79
2024/01/13 16:37:13;;;;;;;13.98;6.80;;;;;;;12.46;82.92;101128.56;10517449;28;20048;-79
2024/01/13 16:42:37;;;;;;;16.95;8.48;;;;;;;12.47;78.63;101128.56;10530528;28;20052;-78
2024/01/13 16:48:00;;;;;;;11.60;5.93;;;;;;;12.44;80.28;101140.88;10537180;28;20049;-76
2024/01/13 16:53:23;;;;;;;15.77;8.77;;;;;;;12.50;83.21;101135.66;10503786;28;20048;-76
2024/01/13 16:58:48;;;;;;;31.00;13.95;;;;;;;12.46;85.00;101139.16;10519548;28;20071;-76
2024/01/13 17:04:10;;;;;;;15.93;11.10;;;;;;;12.41;84.16;101147.00;10517100;28;20056;-77
2024/01/13 17:09:32;;;;;;;5.70;4.68;;;;;;;12.34;80.99;101132.81;10528837;28;20633;-75
2024/01/13 17:14:56;;;;;;;11.55;7.68;;;;;;;12.20;82.06;101149.38;10526669;28;20105;-76
2024/01/13 17:20:20;;;;;;;10.50;5.22;;;;;;;12.24;83.48;101154.72;10515897;28;20423;-76
2024/01/13 17:25:43;;;;;;;11.02;8.10;;;;;;;12.28;79.85;101159.19;10491050;28;20489;-77
2024/01/13 17:31:07;;;;;;;10.90;5.97;;;;;;;12.36;78.86;101167.25;10492154;28;20048;-77
2024/01/13 17:36:30;;;;;;;16.05;9.35;;;;;;;12.37;81.06;101182.28;10475785;28;20423;-80
2024/01/13 17:41:55;;;;;;;6.18;4.82;;;;;;;12.37;82.85;101174.31;10476444;28;20047;-78
2024/01/13 17:47:19;;;;;;;20.15;12.13;;;;;;;12.35;82.51;101186.63;10510461;28;20053;-77
2024/01/13 17:52:41;;;;;;;10.25;6.30;;;;;;;12.25;82.00;101192.69;10523220;28;20056;-76
2024/01/13 17:58:08;;;;;;;13.70;11.32;;;;;;;12.31;81.15;101201.59;10486885;28;20063;-80
2024/01/13 18:03:32;;;;;;;7.50;6.18;;;;;;;12.27;82.57;101207.69;10494503;28;20135;-76
2024/01/13 18:08:54;;;;;;;17.85;8.05;;;;;;;12.16;85.31;101208.41;10523241;28;20135;-76
2024/01/13 18:14:17;;;;;;;13.07;8.10;;;;;;;12.23;84.34;101221.75;10500672;28;20516;-80
2024/01/13 18:19:43;;;;;;;13.43;8.73;;;;;;;12.23;85.25;101231.47;10537340;28;20058;-80
2024/01/13 18:25:06;;;;;;;9.95;6.57;;;;;;;12.32;86.04;101240.44;10522507;28;20044;-77
2024/01/13 18:30:31;;;;;;;12.43;4.53;;;;;;;12.36;83.90;101230.78;10525071;28;20053;-81
2024/01/13 18:35:56;;;;;;;9.90;4.57;;;;;;;12.31;83.78;101230.72;10508775;28;20080;-82
2024/01/13 18:41:21;;;;;;;9.18;3.85;;;;;;;12.33;83.56;101244.00;10530987;28;20867;-79
2024/01/13 18:46:44;;;;;;;14.15;9.55;;;;;;;12.27;82.61;101231.53;10508069;28;20522;-80
2024/01/13 18:52:08;;;;;;;11.90;5.75;;;;;;;12.32;81.02;101236.91;10525532;28;20052;-80
2024/01/13 18:57:34;;;;;;;10.82;6.85;;;;;;;12.25;80.28;101235.91;10499127;28;20048;-86
2024/01/13 19:03:01;;;;;;;12.55;5.25;;;;;;;12.26;77.96;101227.13;10522737;28;20071;-82
2024/01/13 19:08:25;;;;;;;8.80;4.45;;;;;;;12.30;75.98;101233.34;10496831;28;20543;-77
2024/01/13 19:13:48;;;;;;;13.40;6.68;;;;;;;12.27;74.74;101246.53;10518382;28;20044;-77
2024/01/13 19:19:11;;;;;;;12.45;6.45;;;;;;;12.23;75.67;101265.88;10520636;28;20040;-80
2024/01/13 19:24:36;;;;;;;19.75;11.20;;;;;;;12.24;75.75;101250.03;10525095;28;20663;-77
2024/01/13 19:30:00;;;;;;;17.13;7.10;;;;;;;12.35;76.85;101242.25;10480353;28;20135;-84
2024/01/13 19:35:22;;;;;;;16.83;10.25;;;;;;;12.33;76.86;101254.59;10519281;28;20051;-81
2024/01/13 19:40:46;;;;;;;12.40;6.88;;;;;;;12.30;75.42;101250.13;10497765;28;20044;-81
2024/01/13 19:46:09;;;;;;;18.90;8.65;;;;;;;12.33;74.83;101262.53;10530447;28;20044;-79
2024/01/13 19:51:32;;;;;;;13.35;9.80;;;;;;;12.35;77.63;101258.13;10534028;28;20052;-77
2024/01/13 19:56:55;;;;;;;7.30;5.20;;;;;;;12.40;78.70;101251.16;10518105;28;20044;-79
2024/01/13 20:02:18;;;;;;;17.48;8.60;;;;;;;12.49;80.25;101259.25;10511183;28;20097;-81
2024/01/13 20:07:41;;;;;;;12.23;6.85;;;;;;;12.52;83.90;101255.75;10531857;28;20048;-80
2024/01/13 20:13:05;;;;;;;18.00;8.13;;;;;;;12.44;86.30;101258.28;10532787;28;20048;-82
2024/01/13 20:18:28;;;;;;;21.73;13.90;;;;;;;12.47;87.72;101263.59;10533021;28;20044;-81
2024/01/13 20:23:51;;;;;;;8.40;6.05;;;;;;;12.50;89.63;101268.06;10504898;28;20047;-82
2024/01/13 20:29:15;;;;;;;9.88;4.90;;;;;;;12.48;91.00;101253.91;10525375;28;20105;-82
2024/01/13 20:34:38;;;;;;;21.80;10.88;;;;;;;12.54;91.75;101261.94;10531807;28;20493;-83
2024/01/13 20:40:02;;;;;;;13.43;7.68;;;;;;;12.51;91.93;101246.91;10508665;28;20067;-83
2024/01/13 20:45:26;;;;;;;14.55;10.45;;;;;;;12.53;91.28;101250.50;10512814;28;20052;-82
2024/01/13 20:50:49;;;;;;;9.93;5.45;;;;;;;12.27;92.11;101239.47;10502863;28;20048;-85
2024/01/13 20:56:12;;;;;;;17.20;9.77;;;;;;;12.31;92.56;101267.78;10518495;28;20504;-82
2024/01/13 21:01:36;;;;;;;9.82;6.25;;;;;;;12.35;93.63;101266.97;10521107;28;20495;-82
2024/01/13 21:06:59;;;;;;;11.15;6.25;;;;;;;12.47;93.57;101257.44;10531761;28;20040;-83
2024/01/13 21:12:22;;;;;;;11.98;6.88;;;;;;;12.46;93.78;101264.50;10532001;28;20048;-84
2024/01/13 21:17:46;;;;;;;11.05;5.38;;;;;;;12.46;94.22;101260.97;10532468;28;20055;-83
2024/01/13 21:23:09;;;;;;;14.43;6.50;;;;;;;12.50;93.72;101263.66;10526217;28;20048;-84
2024/01/13 21:28:32;;;;;;;10.60;5.57;;;;;;;12.57;92.99;101254.06;10524921;28;20048;-84
2024/01/13 21:33:59;;;;;;;8.38;4.65;;;;;;;12.58;93.16;101253.19;10524314;28;20127;-83
2024/01/13 21:39:23;;;;;;;9.73;4.43;;;;;;;12.63;93.27;101257.69;10540074;28;20042;-82
2024/01/13 21:44:46;;;;;;;10.85;4.82;;;;;;;12.62;94.64;101261.22;10525206;28;20109;-81
2024/01/13 21:50:12;;;;;;;7.85;4.28;;;;;;;12.65;95.00;101265.69;10538627;28;20051;-81
2024/01/13 21:55:37;;;;;;;11.38;6.00;;;;;;;12.64;95.44;101270.06;10538998;28;20131;-80
2024/01/13 22:01:04;;;;;;;11.30;5.75;;;;;;;12.70;94.84;101262.22;10543160;28;20125;-80
2024/01/13 22:06:29;;;;;;;10.27;5.68;;;;;;;12.74;92.56;101265.78;10521207;28;20087;-81
2024/01/13 22:11:51;;;;;;;7.85;4.70;;;;;;;12.64;93.02;101269.19;10549936;28;20101;-82
2024/01/13 22:17:19;;;;;;;10.23;5.40;;;;;;;12.58;91.65;101264.69;10522865;28;20054;-82
2024/01/13 22:22:49;;;;;;;7.32;4.85;;;;;;;12.58;91.86;101256.75;10536224;28;20070;-81
2024/01/13 22:28:12;;;;;;;11.88;4.88;;;;;;;12.59;91.14;101258.53;10536505;28;20051;-82
2024/01/13 22:33:35;;;;;;;6.60;4.40;;;;;;;12.64;91.61;101251.53;10537140;28;20101;-83
2024/01/13 22:38:59;;;;;;;11.70;5.00;;;;;;;12.64;92.41;101248.88;10550509;28;20102;-82
2024/01/13 22:44:22;;;;;;;9.65;5.55;;;;;;;12.70;92.52;101248.09;10519515;28;20047;-82
2024/01/13 22:49:44;;;;;;;11.23;5.80;;;;;;;12.70;94.33;101256.94;10527983;28;20146;-82
2024/01/13 22:55:10;;;;;;;8.23;4.47;;;;;;;12.82;94.40;101256.22;10508309;28;20036;-82
2024/01/13 23:00:32;;;;;;;8.27;4.85;;;;;;;12.74;93.79;101237.53;10522112;28;20519;-84
2024/01/13 23:05:55;;;;;;;9.20;4.78;;;;;;;12.70;90.98;101251.63;10534650;28;20502;-81
2024/01/13 23:11:19;;;;;;;7.65;3.90;;;;;;;12.62;90.23;101247.06;10516099;28;20138;-82
2024/01/13 23:16:46;;;;;;;11.50;4.78;;;;;;;12.63;89.70;101254.16;10535956;28;20138;-83
2024/01/13 23:22:09;;;;;;;8.65;4.75;;;;;;;12.65;90.11;101247.13;10521942;28;20052;-84
2024/01/13 23:27:33;;;;;;;11.25;5.10;;;;;;;12.71;90.79;101250.75;10535323;28;20040;-83
2024/01/13 23:32:56;;;;;;;11.63;5.00;;;;;;;12.69;91.69;101254.25;10535991;28;20072;-83
2024/01/13 23:38:18;;;;;;;13.20;5.25;;;;;;;12.73;92.45;101250.78;10521353;28;20135;-82
2024/01/13 23:43:42;;;;;;;10.45;5.95;;;;;;;12.71;93.49;101248.13;10504420;28;20118;-83
2024/01/13 23:49:06;;;;;;;7.22;5.32;;;;;;;12.77;95.21;101242.00;10534506;28;20062;-82
2024/01/13 23:54:29;;;;;;;9.32;5.28;;;;;;;12.77;95.28;101252.59;10540873;28;20146;-83
2024/01/13 23:59:53;;;;;;;6.55;4.50;;;;;;;12.77;94.69;101242.00;10535185;28;20135;-83
